createdAt,value
2018-04-11T00:01:58.343Z,12.23
2018-04-11T00:04:32.166Z,12.22
2018-04-11T00:07:05.915Z,12.12
2018-04-11T00:09:40.023Z,12.10
2018-04-11T00:12:13.969Z,12.06
2018-04-11T00:14:47.485Z,11.99
2018-04-11T00:17:20.969Z,11.93
2018-04-11T00:19:54.326Z,11.90
2018-04-11T00:22:27.803Z,11.98
2018-04-11T00:25:01.127Z,11.96
2018-04-11T00:27:34.441Z,11.91
2018-04-11T00:30:07.866Z,11.79
2018-04-11T00:32:41.132Z,11.70
2018-04-11T00:35:14.446Z,11.67
2018-04-11T00:37:47.962Z,11.67
2018-04-11T00:40:21.264Z,11.65
2018-04-11T00:42:54.653Z,11.62
2018-04-11T00:45:28.273Z,11.57
2018-04-11T00:48:01.988Z,11.57
2018-04-11T00:50:35.367Z,11.80
2018-04-11T00:53:17.337Z,11.85
2018-04-11T00:55:50.715Z,11.83
2018-04-11T00:58:24.045Z,11.72
2018-04-11T01:00:57.390Z,11.66
2018-04-11T01:03:30.842Z,11.62
2018-04-11T01:06:04.136Z,11.59
2018-04-11T01:08:37.600Z,11.67
2018-04-11T01:11:10.801Z,11.56
2018-04-11T01:13:44.150Z,11.52
2018-04-11T01:16:17.787Z,11.52
2018-04-11T01:18:51.530Z,11.47
2018-04-11T01:21:24.755Z,11.41
2018-04-11T01:23:58.005Z,11.37
2018-04-11T01:26:31.760Z,11.41
2018-04-11T01:29:05.150Z,11.44
2018-04-11T01:31:38.764Z,11.54
2018-04-11T01:34:12.293Z,11.85
2018-04-11T01:36:45.425Z,12.31
2018-04-11T01:39:18.894Z,12.60
2018-04-11T01:41:52.650Z,12.73
2018-04-11T01:44:26.003Z,12.81
2018-04-11T01:46:59.668Z,12.96
2018-04-11T01:49:32.878Z,13.08
2018-04-11T01:52:06.189Z,13.24
2018-04-11T01:54:39.516Z,13.37
2018-04-11T01:57:12.712Z,13.38
2018-04-11T01:59:45.949Z,13.42
2018-04-11T02:02:19.449Z,13.37
2018-04-11T02:04:53.502Z,13.35
2018-04-11T02:07:26.814Z,13.33
2018-04-11T02:10:00.119Z,13.36
2018-04-11T02:12:33.420Z,13.38
2018-04-11T02:15:06.975Z,13.17
2018-04-11T02:17:40.349Z,12.99
2018-04-11T02:20:13.579Z,12.92
2018-04-11T02:22:46.989Z,12.96
2018-04-11T02:25:20.206Z,12.86
2018-04-11T02:27:53.502Z,12.79
2018-04-11T02:30:27.009Z,12.71
2018-04-11T02:33:00.537Z,12.70
2018-04-11T02:35:34.182Z,12.61
2018-04-11T02:38:07.730Z,12.53
2018-04-11T02:40:41.020Z,12.56
2018-04-11T02:43:14.721Z,12.60
2018-04-11T02:45:48.276Z,12.58
2018-04-11T02:48:21.591Z,12.55
2018-04-11T02:50:55.107Z,12.52
2018-04-11T02:53:29.723Z,12.49
2018-04-11T02:56:02.956Z,12.61
2018-04-11T02:58:36.612Z,12.68
2018-04-11T03:01:10.505Z,12.69
2018-04-11T03:03:45.397Z,12.73
2018-04-11T03:06:19.048Z,12.72
2018-04-11T03:08:52.453Z,12.75
2018-04-11T03:11:25.945Z,12.70
2018-04-11T03:13:59.215Z,12.67
2018-04-11T03:16:32.544Z,12.78
2018-04-11T03:19:05.853Z,12.88
2018-04-11T03:21:39.482Z,12.78
2018-04-11T03:24:15.969Z,12.67
2018-04-11T03:26:49.505Z,12.57
2018-04-11T03:29:23.702Z,12.58
2018-04-11T03:31:56.989Z,12.55
2018-04-11T03:34:30.504Z,12.31
2018-04-11T03:37:03.709Z,12.00
2018-04-11T03:39:36.955Z,11.72
2018-04-11T03:42:10.282Z,11.59
2018-04-11T03:44:43.469Z,11.51
2018-04-11T03:47:16.903Z,11.36
2018-04-11T03:49:50.219Z,11.30
2018-04-11T03:52:23.826Z,11.26
2018-04-11T03:54:57.234Z,11.15
2018-04-11T03:57:30.533Z,11.14
2018-04-11T04:00:04.021Z,11.11
2018-04-11T04:02:40.925Z,11.03
2018-04-11T04:05:14.861Z,10.97
2018-04-11T04:07:48.199Z,10.90
2018-04-11T04:10:21.841Z,10.89
2018-04-11T04:12:55.419Z,10.89
2018-04-11T04:17:43.283Z,10.96
2018-04-11T04:20:20.557Z,10.97
2018-04-11T04:22:54.135Z,10.99
2018-04-11T04:25:27.611Z,10.88
2018-04-11T04:28:01.001Z,10.85
2018-04-11T04:30:34.238Z,10.83
2018-04-11T04:33:07.585Z,10.86
2018-04-11T04:35:41.269Z,10.87
2018-04-11T04:38:14.529Z,10.97
2018-04-11T04:40:47.743Z,10.94
2018-04-11T04:43:21.412Z,10.95
2018-04-11T04:45:54.978Z,10.86
2018-04-11T04:48:28.339Z,10.86
2018-04-11T04:51:02.054Z,10.86
2018-04-11T04:53:35.357Z,10.85
2018-04-11T04:56:08.751Z,10.82
2018-04-11T04:58:43.673Z,10.91
2018-04-11T05:01:17.939Z,11.06
2018-04-11T05:03:51.427Z,11.03
2018-04-11T05:06:24.905Z,11.01
2018-04-11T05:08:58.153Z,10.99
2018-04-11T05:11:31.425Z,11.03
2018-04-11T05:14:05.439Z,11.03
2018-04-11T05:16:38.770Z,10.98
2018-04-11T05:19:13.089Z,10.97
2018-04-11T05:21:47.054Z,11.07
2018-04-11T05:24:21.597Z,11.17
2018-04-11T05:26:55.752Z,11.30
2018-04-11T05:29:34.755Z,11.36
2018-04-11T05:32:17.055Z,11.48
2018-04-11T05:34:51.491Z,11.66
2018-04-11T05:37:41.531Z,11.71
2018-04-11T05:40:16.871Z,11.69
2018-04-11T05:42:50.691Z,11.72
2018-04-11T05:45:24.411Z,11.84
2018-04-11T05:47:58.110Z,11.97
2018-04-11T05:50:33.242Z,12.04
2018-04-11T05:53:06.718Z,12.19
2018-04-11T05:55:39.947Z,12.24
2018-04-11T05:58:16.123Z,12.24
2018-04-11T06:03:54.466Z,12.31
2018-04-11T06:06:28.338Z,12.33
2018-04-11T06:09:01.734Z,12.29
2018-04-11T06:11:35.792Z,12.46
2018-04-11T06:14:10.523Z,12.63
2018-04-11T06:16:45.307Z,12.65
2018-04-11T06:19:18.820Z,12.57
2018-04-11T06:21:52.579Z,12.68
2018-04-11T06:24:25.840Z,12.96
2018-04-11T06:26:59.539Z,13.29
2018-04-11T06:29:32.946Z,13.81
2018-04-11T06:32:06.576Z,14.08
2018-04-11T06:34:41.791Z,14.35
2018-04-11T06:37:15.700Z,14.50
2018-04-11T06:39:49.338Z,14.36
2018-04-11T06:42:23.127Z,14.37
2018-04-11T06:44:56.676Z,14.57
2018-04-11T06:47:29.988Z,14.46
2018-04-11T06:50:03.773Z,13.91
2018-04-11T06:52:38.379Z,14.04
2018-04-11T06:55:12.077Z,14.20
2018-04-11T06:57:45.592Z,14.25
2018-04-11T07:00:19.197Z,14.08
2018-04-11T07:02:52.631Z,14.14
2018-04-11T07:05:26.709Z,14.54
2018-04-11T07:08:00.386Z,14.67
2018-04-11T07:10:33.709Z,14.80
2018-04-11T07:13:07.569Z,15.14
2018-04-11T07:15:41.662Z,15.37
2018-04-11T07:18:15.256Z,15.57
2018-04-11T07:20:50.047Z,15.63
2018-04-11T07:23:23.604Z,15.90
2018-04-11T07:25:57.103Z,16.10
2018-04-11T07:28:30.438Z,16.11
2018-04-11T07:31:04.076Z,15.94
2018-04-11T07:33:38.562Z,15.86
2018-04-11T07:36:12.031Z,15.44
2018-04-11T07:38:45.669Z,15.48
2018-04-11T07:41:20.013Z,15.69
2018-04-11T07:43:55.634Z,15.95
2018-04-11T07:46:29.406Z,16.10
2018-04-11T07:49:04.039Z,15.94
2018-04-11T07:51:37.420Z,15.87
2018-04-11T07:54:10.908Z,15.79
2018-04-11T07:56:47.718Z,15.67
2018-04-11T07:59:22.681Z,15.51
2018-04-11T08:01:56.798Z,15.44
2018-04-11T08:04:30.574Z,15.22
2018-04-11T08:07:04.705Z,15.36
2018-04-11T08:09:38.154Z,15.61
2018-04-11T08:12:11.525Z,15.67
2018-04-11T08:14:45.276Z,15.78
2018-04-11T08:17:18.628Z,15.90
2018-04-11T08:19:52.066Z,16.11
2018-04-11T08:22:26.339Z,16.52
2018-04-11T08:25:02.663Z,16.92
2018-04-11T08:27:36.858Z,17.37
2018-04-11T08:30:10.784Z,17.48
2018-04-11T08:32:44.160Z,17.14
2018-04-11T08:35:18.257Z,16.88
2018-04-11T08:37:54.471Z,16.82
2018-04-11T08:40:28.299Z,16.56
2018-04-11T08:43:01.852Z,16.38
2018-04-11T08:45:35.195Z,16.51
2018-04-11T08:48:09.143Z,16.34
2018-04-11T08:50:44.743Z,16.12
2018-04-11T08:53:19.042Z,16.06
2018-04-11T08:55:52.964Z,16.13
2018-04-11T08:58:26.249Z,16.40
2018-04-11T09:00:59.749Z,16.51
2018-04-11T09:03:33.909Z,16.72
2018-04-11T09:06:07.366Z,16.51
2018-04-11T09:08:40.649Z,16.46
2018-04-11T09:11:15.115Z,16.36
2018-04-11T09:13:48.738Z,16.61
2018-04-11T09:16:22.352Z,16.79
2018-04-11T09:18:56.261Z,16.92
2018-04-11T09:21:29.615Z,16.45
2018-04-11T09:24:06.603Z,16.58
2018-04-11T09:26:42.002Z,16.61
2018-04-11T09:29:16.991Z,16.34
2018-04-11T09:32:04.067Z,16.19
2018-04-11T09:34:39.024Z,16.19
2018-04-11T09:37:12.725Z,16.61
2018-04-11T09:39:46.509Z,16.84
2018-04-11T09:42:21.176Z,16.93
2018-04-11T09:44:54.908Z,17.17
2018-04-11T09:47:28.411Z,17.44
2018-04-11T09:50:02.608Z,17.54
2018-04-11T09:52:36.642Z,17.29
2018-04-11T09:55:10.342Z,16.96
2018-04-11T09:57:49.843Z,17.25
2018-04-11T10:00:24.096Z,17.34
2018-04-11T10:03:01.466Z,17.21
2018-04-11T10:05:37.187Z,17.54
2018-04-11T10:08:11.572Z,18.02
2018-04-11T10:10:45.457Z,18.00
2018-04-11T10:13:19.041Z,18.05
2018-04-11T10:15:52.660Z,17.89
2018-04-11T10:18:28.414Z,18.36
2018-04-11T10:21:03.137Z,18.13
2018-04-11T10:23:36.820Z,18.16
2018-04-11T10:26:10.160Z,17.77
2018-04-11T10:28:43.712Z,18.06
2018-04-11T10:31:17.298Z,18.48
2018-04-11T10:33:50.664Z,18.95
2018-04-11T10:36:24.605Z,18.62
2018-04-11T10:38:57.952Z,18.84
2018-04-11T10:41:31.552Z,18.85
2018-04-11T10:44:05.219Z,18.68
2018-04-11T10:46:38.536Z,19.19
2018-04-11T10:49:11.708Z,19.36
2018-04-11T10:51:45.824Z,19.71
2018-04-11T10:54:19.170Z,19.97
2018-04-11T10:56:52.477Z,20.08
2018-04-11T10:59:26.096Z,19.13
2018-04-11T11:01:59.479Z,19.12
2018-04-11T11:04:33.152Z,19.30
2018-04-11T11:07:10.922Z,19.25
2018-04-11T11:09:44.417Z,19.62
2018-04-11T11:12:22.605Z,19.94
2018-04-11T11:15:01.122Z,20.30
2018-04-11T11:17:37.896Z,20.08
2018-04-11T11:20:15.076Z,20.00
2018-04-11T11:22:54.756Z,19.99
2018-04-11T11:25:33.314Z,20.34
2018-04-11T11:28:14.313Z,20.49
2018-04-11T11:30:54.567Z,20.72
2018-04-11T11:33:32.371Z,20.40
2018-04-11T11:36:11.204Z,20.61
2018-04-11T11:38:46.387Z,20.34
2018-04-11T11:41:23.598Z,20.13
2018-04-11T11:43:59.489Z,19.58
2018-04-11T11:46:55.801Z,19.35
2018-04-11T11:52:03.216Z,19.88
2018-04-11T11:54:39.138Z,20.31
2018-04-11T11:57:17.733Z,20.25
2018-04-11T11:59:55.696Z,19.87
2018-04-11T12:02:31.852Z,19.73
2018-04-11T12:05:16.521Z,19.61
2018-04-11T12:08:01.977Z,19.08
2018-04-11T12:10:44.285Z,19.14
2018-04-11T12:13:21.844Z,19.51
2018-04-11T12:15:58.143Z,19.61
2018-04-11T12:18:36.302Z,19.59
2018-04-11T12:21:12.155Z,19.47
2018-04-11T12:23:48.015Z,19.45
2018-04-11T12:26:24.522Z,19.47
2018-04-11T12:29:00.505Z,19.07
2018-04-11T12:31:39.902Z,19.01
2018-04-11T12:34:15.858Z,19.10
2018-04-11T12:36:51.607Z,19.54
2018-04-11T12:39:28.121Z,19.45
2018-04-11T12:43:29.638Z,19.63
2018-04-11T12:46:08.667Z,19.68
2018-04-11T12:48:45.199Z,19.64
2018-04-11T12:51:26.015Z,19.56
2018-04-11T12:54:02.712Z,19.68
2018-04-11T12:56:39.160Z,20.07
2018-04-11T12:59:15.707Z,20.11
2018-04-11T13:01:51.681Z,19.89
2018-04-11T13:04:27.482Z,19.69
2018-04-11T13:07:05.261Z,19.62
2018-04-11T13:09:41.792Z,19.82
2018-04-11T13:12:18.470Z,19.49
2018-04-11T13:14:54.809Z,19.12
2018-04-11T13:17:30.399Z,19.01
2018-04-11T13:20:06.429Z,19.00
2018-04-11T13:22:44.039Z,18.83
2018-04-11T13:25:19.855Z,18.97
2018-04-11T13:27:55.873Z,18.94
2018-04-11T13:30:31.564Z,19.55
2018-04-11T13:33:07.523Z,19.82
2018-04-11T13:35:43.798Z,20.04
2018-04-11T13:38:19.611Z,20.34
2018-04-11T13:40:56.622Z,20.40
2018-04-11T13:43:33.123Z,20.41
2018-04-11T13:46:10.225Z,20.44
2018-04-11T13:48:46.761Z,20.02
2018-04-11T13:51:23.673Z,19.30
2018-04-11T13:53:59.912Z,19.26
2018-04-11T13:56:35.763Z,19.25
2018-04-11T13:59:12.426Z,19.09
2018-04-11T14:01:52.067Z,19.13
2018-04-11T14:04:28.548Z,18.77
2018-04-11T14:07:04.670Z,18.81
2018-04-11T14:09:40.989Z,18.32
2018-04-11T14:12:17.075Z,18.31
2018-04-11T14:14:53.842Z,18.25
2018-04-11T14:17:29.872Z,18.31
2018-04-11T14:20:07.535Z,18.38
2018-04-11T14:22:43.595Z,18.39
2018-04-11T14:25:20.494Z,18.45
2018-04-11T14:27:56.701Z,18.38
2018-04-11T14:30:34.278Z,18.81
2018-04-11T14:33:10.619Z,19.55
2018-04-11T14:35:46.751Z,19.51
2018-04-11T14:38:22.901Z,19.68
2018-04-11T14:40:58.865Z,19.61
2018-04-11T14:43:35.669Z,19.55
2018-04-11T14:46:12.525Z,19.50
2018-04-11T14:48:48.220Z,19.55
2018-04-11T14:51:24.854Z,19.54
2018-04-11T14:54:00.569Z,19.36
2018-04-11T14:56:38.748Z,19.45
2018-04-11T14:59:15.085Z,19.60
2018-04-11T15:01:54.321Z,19.62
2018-04-11T15:04:37.334Z,19.43
2018-04-11T15:07:13.828Z,19.37
2018-04-11T15:09:54.117Z,19.10
2018-04-11T15:12:30.111Z,19.03
2018-04-11T15:15:05.856Z,18.88
2018-04-11T15:17:44.505Z,18.77
2018-04-11T15:20:23.421Z,18.76
2018-04-11T15:23:01.383Z,18.83
2018-04-11T15:25:41.323Z,19.04
2018-04-11T15:28:31.662Z,18.74
2018-04-11T15:31:14.678Z,18.74
2018-04-11T15:33:57.580Z,18.85
2018-04-11T15:36:34.248Z,19.03
2018-04-11T15:39:10.583Z,18.92
2018-04-11T15:41:47.127Z,18.86
2018-04-11T15:44:23.944Z,18.85
2018-04-11T15:47:00.789Z,18.82
2018-04-11T15:49:37.424Z,18.78
2018-04-11T15:52:13.885Z,18.73
2018-04-11T15:54:55.548Z,18.64
2018-04-11T15:57:32.426Z,18.54
2018-04-11T16:00:09.142Z,18.61
2018-04-11T16:02:52.184Z,18.43
2018-04-11T16:05:32.194Z,18.48
2018-04-11T16:08:09.914Z,18.44
2018-04-11T16:10:51.208Z,18.38
2018-04-11T16:13:29.508Z,18.34
2018-04-11T16:16:10.069Z,18.27
2018-04-11T16:18:48.761Z,18.18
2018-04-11T16:21:27.231Z,18.12
2018-04-11T16:24:03.836Z,18.06
2018-04-11T16:26:40.514Z,17.96
2018-04-11T16:29:20.633Z,17.86
2018-04-11T16:31:59.262Z,17.87
2018-04-11T16:34:38.041Z,17.81
2018-04-11T16:37:13.960Z,17.73
2018-04-11T16:39:54.460Z,17.64
2018-04-11T16:42:42.656Z,17.62
2018-04-11T16:45:18.462Z,17.52
2018-04-11T16:47:54.520Z,17.44
2018-04-11T16:50:33.345Z,17.26
2018-04-11T16:53:09.650Z,17.23
2018-04-11T16:55:47.886Z,17.12
2018-04-11T16:58:24.782Z,16.93
2018-04-11T17:01:02.429Z,16.92
2018-04-11T17:03:44.593Z,16.78
2018-04-11T17:06:20.403Z,16.69
2018-04-11T17:08:56.598Z,16.55
2018-04-11T17:11:36.791Z,16.44
2018-04-11T17:14:15.095Z,16.32
2018-04-11T17:16:51.762Z,16.28
2018-04-11T17:19:28.759Z,16.24
2018-04-11T17:24:17.228Z,16.17
2018-04-11T17:27:04.386Z,15.99
2018-04-11T17:31:59.915Z,15.81
2018-04-11T17:34:38.469Z,15.59
2018-04-11T17:37:15.437Z,15.47
2018-04-11T17:39:52.521Z,15.38
2018-04-11T17:42:28.798Z,15.24
2018-04-11T17:45:06.193Z,15.21
2018-04-11T17:47:44.751Z,15.12
2018-04-11T17:50:20.797Z,15.00
2018-04-11T17:52:57.607Z,14.92
2018-04-11T17:55:34.593Z,14.82
2018-04-11T17:58:39.335Z,14.70
2018-04-11T18:01:13.018Z,14.63
2018-04-11T18:03:47.443Z,14.58
2018-04-11T18:06:21.861Z,14.52
2018-04-11T18:08:56.074Z,14.44
2018-04-11T18:11:30.039Z,14.34
2018-04-11T18:14:04.355Z,14.30
2018-04-11T18:16:39.300Z,14.23
2018-04-11T18:19:13.020Z,14.15
2018-04-11T18:21:53.160Z,14.12
2018-04-11T18:24:28.737Z,14.24
2018-04-11T18:27:02.275Z,14.36
2018-04-11T18:29:37.236Z,14.48
2018-04-11T18:32:13.098Z,14.50
2018-04-11T18:34:47.731Z,14.60
2018-04-11T18:37:22.957Z,14.73
2018-04-11T18:39:56.636Z,14.88
2018-04-11T18:42:30.083Z,14.95
2018-04-11T18:45:03.958Z,15.04
2018-04-11T18:47:37.844Z,14.71
2018-04-11T18:50:11.199Z,14.59
2018-04-11T18:52:44.778Z,14.57
2018-04-11T18:55:18.667Z,14.48
2018-04-11T18:57:52.227Z,14.31
2018-04-11T19:00:26.642Z,14.29
2018-04-11T19:03:00.631Z,14.29
2018-04-11T19:05:34.036Z,14.37
2018-04-11T19:08:07.606Z,14.41
2018-04-11T19:10:41.030Z,14.24
2018-04-11T19:14:56.362Z,14.34
2018-04-11T19:17:30.085Z,14.33
2018-04-11T19:20:03.657Z,14.26
2018-04-11T19:22:38.880Z,14.12
2018-04-11T19:25:12.417Z,14.13
2018-04-11T19:27:46.458Z,14.09
2018-04-11T19:30:19.976Z,14.00
2018-04-11T19:32:53.304Z,13.85
2018-04-11T19:35:26.862Z,13.77
2018-04-11T19:38:00.181Z,13.60
2018-04-11T19:40:33.565Z,13.56
2018-04-11T19:43:08.006Z,13.51
2018-04-11T19:45:41.855Z,13.48
2018-04-11T19:48:15.924Z,13.32
2018-04-11T19:50:50.154Z,13.24
2018-04-11T19:53:23.451Z,13.18
2018-04-11T19:55:56.778Z,13.13
2018-04-11T19:58:34.918Z,13.07
2018-04-11T20:01:10.603Z,12.99
2018-04-11T20:03:45.920Z,12.96
2018-04-11T20:06:19.330Z,12.95
2018-04-11T20:08:53.117Z,12.87
2018-04-11T20:11:26.582Z,12.90
2018-04-11T20:14:00.050Z,12.89
2018-04-11T20:16:34.381Z,12.83
2018-04-11T20:19:08.186Z,12.80
2018-04-11T20:21:41.999Z,12.78
2018-04-11T20:24:16.823Z,12.78
2018-04-11T20:26:52.704Z,12.69
2018-04-11T20:29:28.717Z,12.61
2018-04-11T20:32:02.810Z,12.57
2018-04-11T20:34:40.137Z,12.57
2018-04-11T20:37:13.663Z,12.51
2018-04-11T20:39:47.525Z,12.53
2018-04-11T20:42:20.763Z,12.46
2018-04-11T20:44:54.397Z,12.49
2018-04-11T20:47:28.128Z,12.63
2018-04-11T20:50:02.948Z,12.67
2018-04-11T20:52:36.632Z,12.63
2018-04-11T20:55:09.946Z,12.54
2018-04-11T20:57:43.529Z,12.44
2018-04-11T21:00:21.405Z,12.32
2018-04-11T21:02:56.523Z,12.25
2018-04-11T21:05:30.303Z,12.21
2018-04-11T21:08:03.709Z,12.10
2018-04-11T21:10:37.467Z,12.12
2018-04-11T21:13:11.677Z,12.08
2018-04-11T21:15:44.955Z,12.05
2018-04-11T21:18:19.199Z,12.01
2018-04-11T21:20:53.383Z,11.92
2018-04-11T21:23:26.696Z,11.92
2018-04-11T21:26:00.424Z,11.90
2018-04-11T21:28:34.443Z,11.81
2018-04-11T21:31:07.764Z,11.80
2018-04-11T21:33:41.492Z,11.69
2018-04-11T21:36:15.350Z,11.60
2018-04-11T21:38:48.676Z,11.62
2018-04-11T21:41:22.360Z,11.57
2018-04-11T21:43:55.712Z,11.60
2018-04-11T21:46:30.333Z,11.69
2018-04-11T21:49:04.049Z,11.65
2018-04-11T21:51:37.282Z,11.64
2018-04-11T21:54:10.524Z,11.67
2018-04-11T21:56:44.689Z,11.62
2018-04-11T21:59:18.403Z,11.58
2018-04-11T22:01:52.752Z,11.57
2018-04-11T22:04:26.339Z,11.59
2018-04-11T22:06:59.604Z,11.65
2018-04-11T22:09:33.720Z,11.75
2018-04-11T22:12:07.757Z,11.80
2018-04-11T22:14:41.222Z,11.92
2018-04-11T22:17:14.578Z,11.80
2018-04-11T22:19:48.570Z,11.74
2018-04-11T22:22:21.832Z,11.67
2018-04-11T22:24:55.143Z,11.63
2018-04-11T22:27:29.269Z,11.62
2018-04-11T22:30:02.761Z,11.73
2018-04-11T22:32:38.865Z,11.57
2018-04-11T22:35:13.333Z,11.84
2018-04-11T22:37:47.562Z,11.85
2018-04-11T22:40:21.131Z,11.91
2018-04-11T22:42:54.399Z,11.88
2018-04-11T22:45:27.799Z,11.85
2018-04-11T22:48:02.358Z,11.92
2018-04-11T22:50:35.860Z,11.80
2018-04-11T22:53:09.313Z,11.70
2018-04-11T22:55:44.138Z,11.76
2018-04-11T22:58:17.883Z,11.70
2018-04-11T23:00:51.475Z,11.60
2018-04-11T23:03:24.906Z,11.74
2018-04-11T23:05:58.318Z,11.69
2018-04-11T23:08:33.729Z,11.60
2018-04-11T23:11:07.018Z,11.46
2018-04-11T23:13:40.307Z,11.37
2018-04-11T23:16:17.029Z,11.52
2018-04-11T23:18:50.644Z,11.57
2018-04-11T23:21:24.591Z,11.45
2018-04-11T23:23:58.400Z,11.53
2018-04-11T23:26:31.848Z,11.52
2018-04-11T23:29:05.465Z,11.54
2018-04-11T23:31:38.887Z,11.64
2018-04-11T23:36:43.856Z,11.63
2018-04-11T23:39:17.936Z,11.53
2018-04-11T23:41:51.492Z,11.41
2018-04-11T23:44:24.937Z,11.47
2018-04-11T23:46:58.383Z,11.28
2018-04-11T23:49:31.671Z,11.14
2018-04-11T23:52:05.674Z,11.12
2018-04-11T23:54:39.309Z,10.95
2018-04-11T23:57:15.021Z,10.98
2018-04-11T23:59:50.332Z,10.91
